createdAt,value
2019-02-20T00:02:12.202Z,5.80
2019-02-20T00:04:40.626Z,6.10
2019-02-20T00:07:09.888Z,6.40
2019-02-20T00:09:39.279Z,6.50
2019-02-20T00:12:08.009Z,6.00
2019-02-20T00:14:37.470Z,6.23
2019-02-20T00:17:06.033Z,6.40
2019-02-20T00:19:34.740Z,5.63
2019-02-20T00:22:03.630Z,5.57
2019-02-20T00:24:32.215Z,5.20
2019-02-20T00:27:01.409Z,5.47
2019-02-20T00:29:30.815Z,6.50
2019-02-20T00:31:59.194Z,6.23
2019-02-20T00:34:27.883Z,7.23
2019-02-20T00:39:52.430Z,7.00
2019-02-20T00:42:19.842Z,7.57
2019-02-20T00:45:05.714Z,7.40
2019-02-20T00:47:42.919Z,6.27
2019-02-20T00:50:11.354Z,5.67
2019-02-20T00:53:01.253Z,5.50
2019-02-20T00:55:28.622Z,5.00
2019-02-20T00:57:55.961Z,5.70
2019-02-20T01:00:23.670Z,5.73
2019-02-20T01:02:51.111Z,5.67
2019-02-20T01:05:18.463Z,5.70
2019-02-20T01:07:45.862Z,6.10
2019-02-20T01:10:13.200Z,6.20
2019-02-20T01:12:40.563Z,6.13
2019-02-20T01:15:08.442Z,5.93
2019-02-20T01:17:35.782Z,6.20
2019-02-20T01:20:03.540Z,6.10
2019-02-20T01:22:30.921Z,6.40
2019-02-20T01:24:58.299Z,5.57
2019-02-20T01:27:25.635Z,5.87
2019-02-20T01:29:53.025Z,5.47
2019-02-20T01:32:20.374Z,5.53
2019-02-20T01:34:47.719Z,5.33
2019-02-20T01:37:15.108Z,4.73
2019-02-20T01:39:42.484Z,4.80
2019-02-20T01:42:09.860Z,5.40
2019-02-20T01:44:37.221Z,5.57
2019-02-20T01:47:04.581Z,4.97
2019-02-20T01:49:31.944Z,5.33
2019-02-20T01:51:59.459Z,5.13
2019-02-20T01:54:26.836Z,5.37
2019-02-20T01:56:54.179Z,5.60
2019-02-20T01:59:21.630Z,5.37
2019-02-20T02:01:48.979Z,5.97
2019-02-20T02:04:16.369Z,5.70
2019-02-20T02:06:43.779Z,5.53
2019-02-20T02:09:11.099Z,6.07
2019-02-20T02:11:38.513Z,6.10
2019-02-20T02:14:05.884Z,5.87
2019-02-20T02:16:33.219Z,6.33
2019-02-20T02:19:00.559Z,6.10
2019-02-20T02:21:27.940Z,6.57
2019-02-20T02:23:55.288Z,6.40
2019-02-20T02:26:22.647Z,6.23
2019-02-20T02:28:50.039Z,6.77
2019-02-20T02:31:17.400Z,5.93
2019-02-20T02:33:44.744Z,6.07
2019-02-20T02:36:12.121Z,6.40
2019-02-20T02:38:39.440Z,6.00
2019-02-20T02:41:06.824Z,5.70
2019-02-20T02:43:34.806Z,6.27
2019-02-20T02:46:02.142Z,6.13
2019-02-20T02:48:29.519Z,5.90
2019-02-20T02:50:56.861Z,5.90
2019-02-20T02:53:30.765Z,6.77
2019-02-20T02:55:53.499Z,6.40
2019-02-20T02:58:20.864Z,6.30
2019-02-20T03:00:48.242Z,7.57
2019-02-20T03:03:15.623Z,6.87
2019-02-20T03:05:43.363Z,6.07
2019-02-20T03:08:10.681Z,5.77
2019-02-20T03:10:38.067Z,5.73
2019-02-20T03:13:05.487Z,5.33
2019-02-20T03:15:32.819Z,5.20
2019-02-20T03:18:00.341Z,5.30
2019-02-20T03:20:27.742Z,4.80
2019-02-20T03:22:55.168Z,4.43
2019-02-20T03:25:22.520Z,4.63
2019-02-20T03:27:49.902Z,4.47
2019-02-20T03:30:17.304Z,4.90
2019-02-20T03:32:44.665Z,5.27
2019-02-20T03:35:12.020Z,4.80
2019-02-20T03:37:39.436Z,5.17
2019-02-20T03:40:06.910Z,5.10
2019-02-20T03:42:34.242Z,5.07
2019-02-20T03:45:01.641Z,5.23
2019-02-20T03:47:28.983Z,5.40
2019-02-20T03:49:56.381Z,6.30
2019-02-20T03:52:23.722Z,6.10
2019-02-20T03:54:51.081Z,5.93
2019-02-20T03:57:18.505Z,5.77
2019-02-20T03:59:45.882Z,5.10
2019-02-20T04:02:13.262Z,5.70
2019-02-20T04:04:40.638Z,5.63
2019-02-20T04:07:08.002Z,5.67
2019-02-20T04:09:35.351Z,5.50
2019-02-20T04:12:02.684Z,5.83
2019-02-20T04:14:30.027Z,5.77
2019-02-20T04:16:57.403Z,5.50
2019-02-20T04:19:24.725Z,5.97
2019-02-20T04:21:52.086Z,5.70
2019-02-20T04:24:19.483Z,6.20
2019-02-20T04:26:46.822Z,5.50
2019-02-20T04:29:14.184Z,5.47
2019-02-20T04:31:42.204Z,5.40
2019-02-20T04:34:09.577Z,5.27
2019-02-20T04:36:37.342Z,5.53
2019-02-20T04:39:05.717Z,5.73
2019-02-20T04:41:33.104Z,5.47
2019-02-20T04:44:00.478Z,5.00
2019-02-20T04:46:27.792Z,5.30
2019-02-20T04:48:55.124Z,5.23
2019-02-20T04:51:22.484Z,4.87
2019-02-20T04:53:49.902Z,5.00
2019-02-20T04:56:17.249Z,5.33
2019-02-20T04:58:46.262Z,5.20
2019-02-20T05:01:13.690Z,5.10
2019-02-20T05:03:41.036Z,5.03
2019-02-20T05:06:08.413Z,4.60
2019-02-20T05:08:35.815Z,5.67
2019-02-20T05:11:03.136Z,5.83
2019-02-20T05:13:30.663Z,5.73
2019-02-20T05:15:58.022Z,5.53
2019-02-20T05:18:25.384Z,5.20
2019-02-20T05:20:52.765Z,5.30
2019-02-20T05:23:20.147Z,6.10
2019-02-20T05:25:47.505Z,5.20
2019-02-20T05:28:14.928Z,5.10
2019-02-20T05:30:42.236Z,5.27
2019-02-20T05:33:09.623Z,4.87
2019-02-20T05:35:36.984Z,5.20
2019-02-20T05:38:04.322Z,4.90
2019-02-20T05:40:31.708Z,5.70
2019-02-20T05:42:59.066Z,4.83
2019-02-20T05:45:26.404Z,5.43
2019-02-20T05:47:53.816Z,5.10
2019-02-20T05:50:21.164Z,4.87
2019-02-20T05:52:48.507Z,5.17
2019-02-20T05:55:15.906Z,5.07
2019-02-20T05:57:43.588Z,5.00
2019-02-20T06:00:11.347Z,5.37
2019-02-20T06:02:38.727Z,5.73
2019-02-20T06:05:06.189Z,6.00
2019-02-20T06:07:33.615Z,7.00
2019-02-20T06:10:01.000Z,6.73
2019-02-20T06:12:28.339Z,7.03
2019-02-20T06:14:55.809Z,7.10
2019-02-20T06:17:23.159Z,6.30
2019-02-20T06:19:50.506Z,6.40
2019-02-20T06:22:17.880Z,6.50
2019-02-20T06:24:45.248Z,6.03
2019-02-20T06:27:12.647Z,6.13
2019-02-20T06:29:40.026Z,5.90
2019-02-20T06:32:07.400Z,5.83
2019-02-20T06:34:34.782Z,6.10
2019-02-20T06:37:02.162Z,5.67
2019-02-20T06:39:29.507Z,5.83
2019-02-20T06:41:56.907Z,5.80
2019-02-20T06:44:24.672Z,6.00
2019-02-20T06:46:52.076Z,5.50
2019-02-20T06:49:19.422Z,6.47
2019-02-20T06:51:46.841Z,5.70
2019-02-20T06:54:17.074Z,6.17
2019-02-20T06:56:44.464Z,6.27
2019-02-20T06:59:11.802Z,5.70
2019-02-20T07:01:39.190Z,5.83
2019-02-20T07:04:06.801Z,6.47
2019-02-20T07:07:18.518Z,6.30
2019-02-20T07:10:14.830Z,6.63
2019-02-20T07:13:22.614Z,6.33
2019-02-20T07:16:04.182Z,6.43
2019-02-20T07:18:56.042Z,6.00
2019-02-20T07:22:29.370Z,6.17
2019-02-20T07:25:41.405Z,5.97
2019-02-20T07:28:33.721Z,6.03
2019-02-20T07:31:01.473Z,5.57
2019-02-20T07:33:28.806Z,6.00
2019-02-20T07:35:56.325Z,5.97
2019-02-20T07:38:23.688Z,5.20
2019-02-20T07:40:51.022Z,5.10
2019-02-20T07:43:18.363Z,5.60
2019-02-20T07:45:45.701Z,6.97
2019-02-20T07:48:13.082Z,8.03
2019-02-20T07:50:40.421Z,9.33
2019-02-20T07:53:10.043Z,8.97
2019-02-20T07:55:37.461Z,9.67
2019-02-20T07:58:04.802Z,10.20
2019-02-20T08:00:32.123Z,10.67
2019-02-20T08:02:59.539Z,8.80
2019-02-20T08:05:26.894Z,9.87
2019-02-20T08:07:54.289Z,9.57
2019-02-20T08:10:21.675Z,9.47
2019-02-20T08:12:49.060Z,7.33
2019-02-20T08:15:16.443Z,7.73
2019-02-20T08:17:43.824Z,7.80
2019-02-20T08:20:11.349Z,7.43
2019-02-20T08:22:38.742Z,7.67
2019-02-20T08:25:06.427Z,7.63
2019-02-20T08:27:33.746Z,7.80
2019-02-20T08:30:01.147Z,7.93
2019-02-20T08:32:28.990Z,7.73
2019-02-20T08:34:56.329Z,8.27
2019-02-20T08:37:23.665Z,8.13
2019-02-20T08:39:51.293Z,8.63
2019-02-20T08:42:18.684Z,8.27
2019-02-20T08:44:46.141Z,8.73
2019-02-20T08:47:13.482Z,8.40
2019-02-20T08:49:40.857Z,10.30
2019-02-20T08:52:08.210Z,9.13
2019-02-20T08:54:35.542Z,9.50
2019-02-20T08:57:02.921Z,8.63
2019-02-20T08:59:30.259Z,8.47
2019-02-20T09:01:57.660Z,8.97
2019-02-20T09:04:25.025Z,8.87
2019-02-20T09:06:52.344Z,8.77
2019-02-20T09:09:19.745Z,8.40
2019-02-20T09:11:47.083Z,8.40
2019-02-20T09:14:14.405Z,8.53
2019-02-20T09:16:41.801Z,8.20
2019-02-20T09:19:09.162Z,8.47
2019-02-20T09:21:36.557Z,8.07
2019-02-20T09:24:03.924Z,7.83
2019-02-20T09:26:31.265Z,8.27
2019-02-20T09:28:58.631Z,7.73
2019-02-20T09:31:26.024Z,8.10
2019-02-20T09:33:53.331Z,8.50
2019-02-20T09:36:20.680Z,8.00
2019-02-20T09:38:48.011Z,7.77
2019-02-20T09:41:15.351Z,10.70
2019-02-20T09:43:44.600Z,12.70
2019-02-20T09:46:11.943Z,8.93
2019-02-20T09:48:39.300Z,8.70
2019-02-20T09:51:06.941Z,7.83
2019-02-20T09:53:34.305Z,8.80
2019-02-20T09:56:02.035Z,8.33
2019-02-20T09:58:29.394Z,8.23
2019-02-20T10:00:56.827Z,8.50
2019-02-20T10:03:24.208Z,7.13
2019-02-20T10:05:51.614Z,7.10
2019-02-20T10:08:19.040Z,6.70
2019-02-20T10:10:46.427Z,6.77
2019-02-20T10:13:13.778Z,6.33
2019-02-20T10:15:41.223Z,6.50
2019-02-20T10:18:08.588Z,6.80
2019-02-20T10:20:35.919Z,6.63
2019-02-20T10:23:03.301Z,7.23
2019-02-20T10:25:30.650Z,6.43
2019-02-20T10:27:57.977Z,6.53
2019-02-20T10:30:25.576Z,7.17
2019-02-20T10:32:53.139Z,6.93
2019-02-20T10:35:20.731Z,7.47
2019-02-20T10:37:48.401Z,6.57
2019-02-20T10:40:15.961Z,6.50
2019-02-20T10:42:43.503Z,6.17
2019-02-20T10:45:11.354Z,6.10
2019-02-20T10:47:38.859Z,6.50
2019-02-20T10:50:06.793Z,7.00
2019-02-20T10:52:34.302Z,7.20
2019-02-20T10:55:01.644Z,7.23
2019-02-20T10:57:29.000Z,8.60
2019-02-20T10:59:56.405Z,9.27
2019-02-20T11:02:23.786Z,8.67
2019-02-20T11:04:51.247Z,8.47
2019-02-20T11:07:18.620Z,7.33
2019-02-20T11:09:46.365Z,8.00
2019-02-20T11:12:13.934Z,8.70
2019-02-20T11:14:41.275Z,9.50
2019-02-20T11:17:08.689Z,9.63
2019-02-20T11:19:39.132Z,9.70
2019-02-20T11:22:06.557Z,8.87
2019-02-20T11:24:33.940Z,9.20
2019-02-20T11:27:01.289Z,7.97
2019-02-20T11:29:28.641Z,7.57
2019-02-20T11:31:56.583Z,7.90
2019-02-20T11:34:24.131Z,7.93
2019-02-20T11:36:51.466Z,7.37
2019-02-20T11:39:18.835Z,8.03
2019-02-20T11:41:46.179Z,6.90
2019-02-20T11:44:20.781Z,6.83
2019-02-20T11:46:44.636Z,6.23
2019-02-20T11:49:12.185Z,6.07
2019-02-20T11:51:39.560Z,5.70
2019-02-20T11:54:06.946Z,5.87
2019-02-20T11:56:34.358Z,5.63
2019-02-20T11:59:01.721Z,5.30
2019-02-20T12:01:29.092Z,5.80
2019-02-20T12:03:56.476Z,5.30
2019-02-20T12:06:23.860Z,5.20
2019-02-20T12:08:51.194Z,5.57
2019-02-20T12:11:18.597Z,6.17
2019-02-20T12:13:45.994Z,5.97
2019-02-20T12:16:13.859Z,5.93
2019-02-20T12:18:41.243Z,7.00
2019-02-20T12:21:09.343Z,7.03
2019-02-20T12:23:37.066Z,6.80
2019-02-20T12:26:04.855Z,6.23
2019-02-20T12:28:32.205Z,4.90
2019-02-20T12:30:59.621Z,4.90
2019-02-20T12:33:26.943Z,5.07
2019-02-20T12:35:54.336Z,4.57
2019-02-20T12:38:21.909Z,4.73
2019-02-20T12:40:50.861Z,4.17
2019-02-20T12:43:18.407Z,4.67
2019-02-20T12:45:45.795Z,4.30
2019-02-20T12:48:13.178Z,4.00
2019-02-20T12:50:40.516Z,4.10
2019-02-20T12:53:07.882Z,4.10
2019-02-20T12:55:35.268Z,3.63
2019-02-20T12:58:02.739Z,4.23
2019-02-20T13:00:30.189Z,4.47
2019-02-20T13:02:57.633Z,4.20
2019-02-20T13:05:25.598Z,4.37
2019-02-20T13:07:53.061Z,3.87
2019-02-20T13:10:20.392Z,3.43
2019-02-20T13:12:47.739Z,3.97
2019-02-20T13:15:15.175Z,5.43
2019-02-20T13:17:42.567Z,4.27
2019-02-20T13:20:10.082Z,5.00
2019-02-20T13:22:37.522Z,4.17
2019-02-20T13:25:05.141Z,4.23
2019-02-20T13:27:32.561Z,4.60
2019-02-20T13:29:59.914Z,4.10
2019-02-20T13:32:27.259Z,3.97
2019-02-20T13:34:54.636Z,3.73
2019-02-20T13:37:22.043Z,4.00
2019-02-20T13:39:49.425Z,3.67
2019-02-20T13:42:17.074Z,3.90
2019-02-20T13:44:44.460Z,4.80
2019-02-20T13:47:11.822Z,4.20
2019-02-20T13:49:39.390Z,3.97
2019-02-20T13:52:06.811Z,3.80
2019-02-20T13:54:35.588Z,3.47
2019-02-20T13:57:04.050Z,3.37
2019-02-20T13:59:31.480Z,4.10
2019-02-20T14:01:58.969Z,3.97
2019-02-20T14:04:26.377Z,4.50
2019-02-20T14:06:54.344Z,4.80
2019-02-20T14:09:23.952Z,5.43
2019-02-20T14:11:51.312Z,5.80
2019-02-20T14:14:18.689Z,5.03
2019-02-20T14:16:46.107Z,5.40
2019-02-20T14:19:13.789Z,4.80
2019-02-20T14:21:41.292Z,5.17
2019-02-20T14:24:08.702Z,4.20
2019-02-20T14:26:36.349Z,4.90
2019-02-20T14:29:03.883Z,4.73
2019-02-20T14:31:31.360Z,5.67
2019-02-20T14:33:58.855Z,4.40
2019-02-20T14:36:26.592Z,5.77
2019-02-20T14:38:53.999Z,5.80
2019-02-20T14:41:21.505Z,7.13
2019-02-20T14:43:48.899Z,8.60
2019-02-20T14:46:16.307Z,8.77
2019-02-20T14:48:43.724Z,8.80
2019-02-20T14:51:11.143Z,10.00
2019-02-20T14:53:38.602Z,9.67
2019-02-20T14:56:06.225Z,9.07
2019-02-20T14:58:33.564Z,9.77
2019-02-20T15:01:00.962Z,9.63
2019-02-20T15:03:28.354Z,11.70
2019-02-20T15:05:55.830Z,10.37
2019-02-20T15:08:23.227Z,10.47
2019-02-20T15:10:50.739Z,11.73
2019-02-20T15:13:18.334Z,11.90
2019-02-20T15:15:47.388Z,11.17
2019-02-20T15:18:14.898Z,11.30
2019-02-20T15:20:43.225Z,11.80
2019-02-20T15:23:10.984Z,11.53
2019-02-20T15:25:38.902Z,10.77
2019-02-20T15:28:06.555Z,11.50
2019-02-20T15:30:34.493Z,11.97
2019-02-20T15:33:02.503Z,12.10
2019-02-20T15:35:30.243Z,12.90
2019-02-20T15:37:58.089Z,12.57
2019-02-20T15:40:26.019Z,12.73
2019-02-20T15:42:53.800Z,13.37
2019-02-20T15:45:21.729Z,12.80
2019-02-20T15:47:49.702Z,13.20
2019-02-20T15:50:17.610Z,13.20
2019-02-20T15:52:46.462Z,12.63
2019-02-20T15:55:14.400Z,13.87
2019-02-20T15:57:42.392Z,12.60
2019-02-20T16:00:11.795Z,14.00
2019-02-20T16:02:40.002Z,13.33
2019-02-20T16:05:07.970Z,12.57
2019-02-20T16:07:36.103Z,13.50
2019-02-20T16:10:06.035Z,13.33
2019-02-20T16:12:33.964Z,13.40
2019-02-20T16:15:01.780Z,13.40
2019-02-20T16:17:29.720Z,14.13
2019-02-20T16:19:57.394Z,12.47
2019-02-20T16:22:25.159Z,12.73
2019-02-20T16:24:53.080Z,13.93
2019-02-20T16:27:21.131Z,14.03
2019-02-20T16:29:57.955Z,12.37
2019-02-20T16:32:26.031Z,12.63
2019-02-20T16:34:53.739Z,12.60
2019-02-20T16:37:21.769Z,13.87
2019-02-20T16:39:49.828Z,14.33
2019-02-20T16:42:19.942Z,11.63
2019-02-20T16:44:49.241Z,11.63
2019-02-20T16:47:17.061Z,11.50
2019-02-20T16:49:45.218Z,13.70
2019-02-20T16:52:13.195Z,13.10
2019-02-20T16:54:41.101Z,13.03
2019-02-20T16:57:09.233Z,12.80
2019-02-20T16:59:37.090Z,13.47
2019-02-20T17:02:05.187Z,12.47
2019-02-20T17:04:33.196Z,11.87
2019-02-20T17:07:01.220Z,11.77
2019-02-20T17:09:29.226Z,11.50
2019-02-20T17:11:57.059Z,11.30
2019-02-20T17:14:24.962Z,12.23
2019-02-20T17:16:52.974Z,10.80
2019-02-20T17:19:20.954Z,11.30
2019-02-20T17:21:49.064Z,13.27
2019-02-20T17:24:17.021Z,11.43
2019-02-20T17:26:44.985Z,11.70
2019-02-20T17:29:12.925Z,11.40
2019-02-20T17:31:40.803Z,11.13
2019-02-20T17:34:08.737Z,11.90
2019-02-20T17:36:36.823Z,11.70
2019-02-20T17:39:07.378Z,11.13
2019-02-20T17:41:35.306Z,12.43
2019-02-20T17:44:03.414Z,12.53
2019-02-20T17:46:31.344Z,13.43
2019-02-20T17:48:59.326Z,12.70
2019-02-20T17:51:27.236Z,13.03
2019-02-20T17:53:55.155Z,13.13
2019-02-20T17:56:23.490Z,13.30
2019-02-20T17:58:51.438Z,13.67
2019-02-20T18:01:19.397Z,13.80
2019-02-20T18:03:48.205Z,12.77
2019-02-20T18:06:16.278Z,12.47
2019-02-20T18:08:44.346Z,12.70
2019-02-20T18:11:12.379Z,12.53
2019-02-20T18:13:40.276Z,12.80
2019-02-20T18:16:08.164Z,12.30
2019-02-20T18:18:36.446Z,12.87
2019-02-20T18:21:04.429Z,12.80
2019-02-20T18:23:33.445Z,12.80
2019-02-20T18:26:01.443Z,12.47
2019-02-20T18:28:29.483Z,11.63
2019-02-20T18:30:58.575Z,11.90
2019-02-20T18:33:26.637Z,11.53
2019-02-20T18:35:54.666Z,11.53
2019-02-20T18:38:22.781Z,11.97
2019-02-20T18:40:53.269Z,11.00
2019-02-20T18:43:21.300Z,11.13
2019-02-20T18:45:49.313Z,10.83
2019-02-20T18:48:18.889Z,10.67
2019-02-20T18:50:47.299Z,11.47
2019-02-20T18:53:15.292Z,11.40
2019-02-20T18:55:43.958Z,11.80
2019-02-20T18:58:12.023Z,11.10
2019-02-20T19:00:40.050Z,11.60
2019-02-20T19:03:08.153Z,10.53
2019-02-20T19:05:36.486Z,11.30
2019-02-20T19:08:34.359Z,11.37
2019-02-20T19:11:06.002Z,10.70
2019-02-20T19:14:01.388Z,11.73
2019-02-20T19:17:12.237Z,11.27
2019-02-20T19:20:03.959Z,10.70
2019-02-20T19:23:10.710Z,11.17
2019-02-20T19:26:17.303Z,10.70
2019-02-20T19:29:38.504Z,10.63
2019-02-20T19:32:40.865Z,10.33
2019-02-20T19:35:48.620Z,10.40
2019-02-20T19:39:00.525Z,10.23
2019-02-20T19:42:07.126Z,10.90
2019-02-20T19:45:24.689Z,11.90
2019-02-20T19:48:39.963Z,11.00
2019-02-20T19:51:39.434Z,10.30
2019-02-20T19:54:32.921Z,9.70
2019-02-20T19:57:36.704Z,9.97
2019-02-20T20:00:44.574Z,10.50
2019-02-20T20:03:47.643Z,10.23
2019-02-20T20:06:32.866Z,8.80
2019-02-20T20:09:40.536Z,9.30
2019-02-20T20:12:37.519Z,9.80
2019-02-20T20:15:33.660Z,9.73
2019-02-20T20:18:44.951Z,10.50
2019-02-20T20:21:39.114Z,9.33
2019-02-20T20:24:31.598Z,8.53
2019-02-20T20:27:22.225Z,7.07
2019-02-20T20:30:55.843Z,7.30
2019-02-20T20:34:20.086Z,6.23
2019-02-20T20:37:09.193Z,6.63
2019-02-20T20:40:14.283Z,6.17
2019-02-20T20:43:21.404Z,6.40
2019-02-20T20:46:15.089Z,9.20
2019-02-20T20:48:51.004Z,9.20
2019-02-20T20:52:00.820Z,7.60
2019-02-20T20:55:01.471Z,8.20
2019-02-20T20:58:02.169Z,8.90
2019-02-20T21:01:11.650Z,8.27
2019-02-20T21:03:55.017Z,7.70
2019-02-20T21:06:56.778Z,8.07
2019-02-20T21:10:03.827Z,8.50
2019-02-20T21:13:22.154Z,8.70
2019-02-20T21:16:13.254Z,9.60
2019-02-20T21:19:04.673Z,8.00
2019-02-20T21:22:12.649Z,8.23
2019-02-20T21:24:59.186Z,8.17
2019-02-20T21:27:54.690Z,8.90
2019-02-20T21:30:51.919Z,9.77
2019-02-20T21:34:01.052Z,10.00
2019-02-20T21:36:43.603Z,10.43
2019-02-20T21:39:34.042Z,9.53
2019-02-20T21:42:22.629Z,9.73
2019-02-20T21:45:02.537Z,10.27
2019-02-20T21:47:59.542Z,10.03
2019-02-20T21:51:07.954Z,9.37
2019-02-20T21:54:07.399Z,9.80
2019-02-20T21:57:15.879Z,10.57
2019-02-20T22:00:24.414Z,9.27
2019-02-20T22:03:42.358Z,9.33
2019-02-20T22:06:52.282Z,10.07
2019-02-20T22:09:57.712Z,8.23
2019-02-20T22:13:06.725Z,8.90
2019-02-20T22:15:46.955Z,8.70
2019-02-20T22:18:47.881Z,11.77
2019-02-20T22:22:07.143Z,11.07
2019-02-20T22:25:09.199Z,11.90
2019-02-20T22:28:14.217Z,11.10
2019-02-20T22:30:55.100Z,12.23
2019-02-20T22:33:46.921Z,11.73
2019-02-20T22:36:53.142Z,11.20
2019-02-20T22:39:48.479Z,11.50
2019-02-20T22:42:49.877Z,10.93
2019-02-20T22:45:52.592Z,12.23
2019-02-20T22:48:55.901Z,11.60
2019-02-20T22:52:03.541Z,11.03
2019-02-20T22:55:14.433Z,11.23
2019-02-20T22:58:04.939Z,12.30
2019-02-20T23:01:10.102Z,11.80
2019-02-20T23:04:02.942Z,12.57
2019-02-20T23:06:56.946Z,11.50
2019-02-20T23:09:52.817Z,11.43
2019-02-20T23:12:51.279Z,10.93
2019-02-20T23:15:18.732Z,12.53
2019-02-20T23:17:46.072Z,11.77
2019-02-20T23:20:13.448Z,12.30
2019-02-20T23:22:40.840Z,12.10
2019-02-20T23:25:08.182Z,12.13
2019-02-20T23:27:35.530Z,12.17
2019-02-20T23:30:12.522Z,12.07
2019-02-20T23:32:32.379Z,10.90
2019-02-20T23:34:59.702Z,11.60
2019-02-20T23:37:27.099Z,9.83
2019-02-20T23:39:54.440Z,9.40
2019-02-20T23:42:21.823Z,9.57
2019-02-20T23:44:49.182Z,9.60
2019-02-20T23:47:16.542Z,9.67
2019-02-20T23:49:43.919Z,9.47
2019-02-20T23:52:11.287Z,9.60
2019-02-20T23:54:38.642Z,9.87
2019-02-20T23:57:05.999Z,10.23
2019-02-20T23:59:33.331Z,11.33
